الصفحة الرئيسية
صور الأقمار الصناعية توقعات الطقس لمدة 15 يوممناخالتوقعات البحرية إعصار برق مطارأسئلة وأجوبة النشرة الإخبارية حول
طقس : أوروبا أفريقيا أمريكا الشمالية أمريكا الجنوبية آسيا أستراليا-أوقيانوسيا آخرون
لغات جهة اتصال

سكاكا, السعودية

دائرة عرض: 29-47N, خط طول: 040-06E, ارتفاع: 689 m


METAR: OESK 250500Z 03003KT CAVOK 19/02 Q1019 NOSIG
TAF: OESK 242230Z 2500/2606 36008KT CAVOK BECMG 2508/2510 24013KT 7000 FEW040 SCT100

زمن: 08:33 (05:33 UTC)

مراقبة الطقس الحالي

تاريخ و وقت الإصدار 33 دقيقة قبل الساعة 05:00 UTC
ريح 3 kt من الشمال/الشمال الشرقي
درجة الحرارة 19°C
الرطوبة 32%
ضغط 1019 hPa
الرؤية 10 كم أو أكثر
الغيوم لا تقل 1500 م وليس السحاب الأسود

تغيير وحدة

توقعات

تاريخ و وقت الإصدار 7 ساعات و 3 دقيقة قبل الساعة 22:30 UTC
صالحة من التوقعات 25 في 00 بالتوقيت العالمي إلى 26 في 06 بالتوقيت العالمي
ريح 8 kt من الشمال
الرؤية 10 كم أو أكثر
الغيوم لا تقل 1500 م وليس السحاب الأسود
أصبح
من 25 في 08 بالتوقيت العالمي إلى 25 في 10 بالتوقيت العالمي
ريح 13 kt من الغرب/ الجنوب الغربي
الرؤية: 7000 m
غيوم متفرقة على ارتفاع 4000 ft
غيوم متفرقة على ارتفاع 10000 ft
المعلومات الواردة في هذا الموقع يخضع إخلاء
طقس : أوروبا أفريقيا أمريكا الشمالية أمريكا الجنوبية آسيا أستراليا-أوقيانوسيا آخرون
صور الأقمار الصناعية توقعات الطقس لمدة 15 يوممناخالتوقعات البحرية إعصار برق مطارأسئلة وأجوبة لغات جهة اتصال النشرة الإخبارية حول